LEAM/LEI METAR and TAF weather

Enter ICAO airport designator
Station Type Date Time Source
LEAM METAR 2020/01/21 18:30 UTC NOAA

LEAM 211830Z 07003KT 9999 SCT030 BKN060 12/08 Q1014


Station Type Date Time Source
LEAM Decoded METAR 2020/01/21 18:30 UTC NOAA

Almeria / Aeropuerto, Spain (LEAM) 36-51N 002-23W 21M
Jan 21, 2020 - 01:30 PM EST / 2020.01.21 1830 UTC
Wind: from the ENE (070 degrees) at 3 MPH (3 KT):0
Visibility: greater than 7 mile(s):0
Sky conditions: mostly cloudy
Temperature: 53 F (12 C)
Dew Point: 46 F (8 C)
Relative Humidity: 76%
Pressure (altimeter): 29.94 in. Hg (1014 hPa)
ob: LEAM 211830Z 07003KT 9999 SCT030 BKN060 12/08 Q1014
cycle: 18

Station Type Date Time Source
LEAM TAF 2020/01/21 15:31 UTC NOAA

TAF LEAM 211400Z 2115/2215 24009KT 9999 FEW020 BKN040 TX14/2214Z TN08/2206Z
BECMG 2118/2121 34010KT

Example: see airport list